Advocate Harbour, Canada
Current Conditions -  °F | °C
As of 6:00 PM on Saturday 25 Oct 2014 (Local Time) from CYZX Reporting Station
Drizzle Drizzle  
Wind Chill: 46°   Ceiling: 1700
Heat Index: 48°   Visibility: 6mi
Dew Point: 46°   Wind: 6mph
Humidity: 93%   Direction: 280°W
Pressure: 29.54"   Gusts: NA
Location:  45.33°N, 64.78°W
Report Text: CYZX 252100Z 28005KT 6SM -DZ BR OVC017 09/08 A2954 RMK SC8 WNDY HILL 33005KT -DZ INTMT VIS VRB 4-8 CIG RAG SLP005
Loading
Personal Weather Stations






























Interactive Weather Map
Tropical Storm Tracking
New forecast layout! Learn more

10-Day Weather Forecast

Advertisements
Track Severe Weather on mobile